Potosi, Wisconsin
Current Conditions -  °F | °C
As of 6:35 PM on Friday 24 Oct 2014 (Local Time) from KPVB Reporting Station
Overcast Overcast  
Wind Chill: 60°   Ceiling: 2600
Heat Index: 60°   Visibility: 10mi
Dew Point: 55°   Wind: 3mph
Humidity: 84%   Direction: 180°S
Pressure: 29.93"   Gusts: NA
Location:  42.69°N, 90.71°W
Report Text: KPVB 242335Z AUTO 18003KT 10SM OVC026 15/13 A2993 RMK AO1 T01530126
Loading
Personal Weather Stations






























Interactive Weather Map
Tropical Storm Tracking
New forecast layout! Learn more

10-Day Weather Forecast

Advertisements
Track Severe Weather on mobile